createdAt,value
2022-09-15T00:00:29.730Z,96641.53
2022-09-15T00:03:35.715Z,96634.88
2022-09-15T00:06:44.067Z,96643.66
2022-09-15T00:09:49.646Z,96631.94
2022-09-15T00:12:55.270Z,96630.56
2022-09-15T00:16:00.977Z,96622.44
2022-09-15T00:19:07.871Z,96616.84
2022-09-15T00:22:16.648Z,96613.19
2022-09-15T00:25:22.199Z,96613.25
2022-09-15T00:28:27.723Z,96614.44
2022-09-15T00:31:35.588Z,96606.44
2022-09-15T00:34:42.386Z,96607.59
2022-09-15T00:37:51.514Z,96597.47
2022-09-15T00:41:00.276Z,96588.16
2022-09-15T00:44:29.311Z,96601.09
2022-09-15T00:47:43.443Z,96593.63
2022-09-15T00:50:59.964Z,96588.69
2022-09-15T00:54:17.483Z,96588.69
2022-09-15T00:57:31.871Z,96582.22
2022-09-15T01:00:38.615Z,96568.75
2022-09-15T01:03:45.317Z,96559.66
2022-09-15T01:06:58.179Z,96564.50
2022-09-15T01:10:11.947Z,96560.81
2022-09-15T01:13:20.039Z,96554.22
2022-09-15T01:16:48.109Z,96552.53
2022-09-15T01:20:37.121Z,96553.31
2022-09-15T01:24:29.535Z,96559.44
2022-09-15T01:28:33.314Z,96549.38
2022-09-15T01:32:02.966Z,96558.97
2022-09-15T01:35:29.311Z,96548.47
2022-09-15T01:38:50.626Z,96542.63
2022-09-15T01:42:04.221Z,96542.41
2022-09-15T01:45:17.089Z,96544.13
2022-09-15T01:48:31.242Z,96543.59
2022-09-15T01:51:42.094Z,96539.88
2022-09-15T01:54:54.734Z,96540.47
2022-09-15T01:58:02.437Z,96547.00
2022-09-15T02:01:16.972Z,96543.69
2022-09-15T02:04:36.905Z,96534.16
2022-09-15T02:07:54.949Z,96529.34
2022-09-15T02:11:16.560Z,96524.19
2022-09-15T02:14:44.018Z,96528.00
2022-09-15T02:17:55.571Z,96524.31
2022-09-15T02:21:19.153Z,96517.28
2022-09-15T02:24:34.660Z,96529.44
2022-09-15T02:27:50.120Z,96521.72
2022-09-15T02:31:02.365Z,96526.63
2022-09-15T02:34:18.036Z,96530.66
2022-09-15T02:37:27.610Z,96523.66
2022-09-15T02:40:35.845Z,96518.03
2022-09-15T02:43:49.489Z,96515.59
2022-09-15T02:46:55.394Z,96513.91
2022-09-15T02:50:01.306Z,96515.53
2022-09-15T02:53:10.101Z,96510.03
2022-09-15T02:56:17.243Z,96505.91
2022-09-15T02:59:25.096Z,96503.28
2022-09-15T03:02:31.356Z,96498.47
2022-09-15T03:05:36.856Z,96501.56
2022-09-15T03:08:45.455Z,96500.22
2022-09-15T03:11:51.017Z,96498.34
2022-09-15T03:14:56.717Z,96490.34
2022-09-15T03:18:02.443Z,96496.00
2022-09-15T03:21:11.819Z,96506.56
2022-09-15T03:24:20.038Z,96508.19
2022-09-15T03:27:25.932Z,96497.94
2022-09-15T03:30:31.448Z,96494.69
2022-09-15T03:33:37.221Z,96494.03
2022-09-15T03:36:43.343Z,96489.84
2022-09-15T03:39:52.311Z,96491.72
2022-09-15T03:42:57.850Z,96490.00
2022-09-15T03:46:05.537Z,96489.78
2022-09-15T03:49:11.153Z,96494.13
2022-09-15T03:52:16.817Z,96483.38
2022-09-15T03:55:24.949Z,96480.84
2022-09-15T03:58:31.021Z,96481.34
2022-09-15T04:01:38.236Z,96485.31
2022-09-15T04:04:44.285Z,96487.66
2022-09-15T04:07:49.847Z,96489.84
2022-09-15T04:10:57.925Z,96489.34
2022-09-15T04:14:06.258Z,96487.78
2022-09-15T04:17:15.686Z,96486.66
2022-09-15T04:20:21.637Z,96471.06
2022-09-15T04:23:27.353Z,96474.25
2022-09-15T04:26:39.615Z,96472.09
2022-09-15T04:29:45.541Z,96475.13
2022-09-15T04:32:52.610Z,96479.16
2022-09-15T04:36:02.399Z,96483.72
2022-09-15T04:39:09.115Z,96481.34
2022-09-15T04:42:17.589Z,96476.19
2022-09-15T04:45:23.304Z,96474.09
2022-09-15T04:48:30.133Z,96474.88
2022-09-15T04:51:35.864Z,96466.34
2022-09-15T04:54:41.413Z,96468.72
2022-09-15T04:57:49.657Z,96471.97
2022-09-15T05:00:55.240Z,96474.88
2022-09-15T05:04:02.403Z,96465.78
2022-09-15T05:07:08.123Z,96457.16
2022-09-15T05:10:14.364Z,96452.31
2022-09-15T05:13:34.922Z,96468.19
2022-09-15T05:16:41.220Z,96464.41
2022-09-15T05:19:52.728Z,96467.88
2022-09-15T05:22:58.253Z,96458.81
2022-09-15T05:26:07.783Z,96467.44
2022-09-15T05:29:16.201Z,96469.34
2022-09-15T05:32:21.702Z,96468.59
2022-09-15T05:35:27.366Z,96475.28
2022-09-15T05:38:35.141Z,96476.94
2022-09-15T05:41:40.955Z,96483.69
2022-09-15T05:44:49.198Z,96487.47
2022-09-15T05:47:54.725Z,96487.25
2022-09-15T05:51:07.963Z,96481.31
2022-09-15T05:54:15.911Z,96488.03
2022-09-15T05:57:21.507Z,96484.25
2022-09-15T06:00:30.011Z,96485.03
2022-09-15T06:03:35.662Z,96477.53
2022-09-15T06:06:41.359Z,96478.59
2022-09-15T06:09:46.938Z,96484.81
2022-09-15T06:12:53.529Z,96502.06
2022-09-15T06:16:09.321Z,96511.72
2022-09-15T06:19:15.113Z,96523.53
2022-09-15T06:22:20.657Z,96535.59
2022-09-15T06:25:27.975Z,96536.41
2022-09-15T06:28:33.589Z,96539.31
2022-09-15T06:31:41.928Z,96541.78
2022-09-15T06:34:47.616Z,96554.53
2022-09-15T06:37:54.173Z,96571.03
2022-09-15T06:41:02.403Z,96589.69
2022-09-15T06:44:07.998Z,96599.31
2022-09-15T06:47:23.652Z,96610.34
2022-09-15T06:50:29.443Z,96621.53
2022-09-15T06:53:38.284Z,96635.28
2022-09-15T06:56:45.555Z,96645.75
2022-09-15T06:59:51.711Z,96660.19
2022-09-15T07:03:00.222Z,96676.75
2022-09-15T07:06:09.201Z,96679.03
2022-09-15T07:09:15.749Z,96681.53
2022-09-15T07:12:21.283Z,96685.97
2022-09-15T07:15:28.435Z,96694.63
2022-09-15T07:18:42.866Z,96696.88
2022-09-15T07:21:48.917Z,96705.38
2022-09-15T07:24:54.430Z,96702.28
2022-09-15T07:27:59.967Z,96716.00
2022-09-15T07:31:07.611Z,96724.44
2022-09-15T07:34:15.838Z,96735.25
2022-09-15T07:37:27.930Z,96752.59
2022-09-15T07:40:34.375Z,96755.63
2022-09-15T07:43:40.573Z,96747.06
2022-09-15T07:46:46.521Z,96763.72
2022-09-15T07:49:54.637Z,96770.41
2022-09-15T07:53:02.333Z,96776.44
2022-09-15T07:56:08.817Z,96790.50
2022-09-15T07:59:16.492Z,96788.91
2022-09-15T08:02:24.290Z,96800.06
2022-09-15T08:05:37.345Z,96809.53
2022-09-15T08:08:45.840Z,96813.56
2022-09-15T08:11:51.370Z,96819.16
2022-09-15T08:14:56.869Z,96823.59
2022-09-15T08:18:06.629Z,96843.81
2022-09-15T08:21:20.347Z,96855.94
2022-09-15T08:24:26.604Z,96851.22
2022-09-15T08:27:32.198Z,96860.69
2022-09-15T08:30:38.371Z,96859.13
2022-09-15T08:33:45.877Z,96854.63
2022-09-15T08:36:55.114Z,96856.19
2022-09-15T08:40:02.916Z,96849.19
2022-09-15T08:43:26.272Z,96847.25
2022-09-15T08:46:42.899Z,96837.34
2022-09-15T08:50:05.411Z,96856.53
2022-09-15T08:53:22.905Z,96860.94
2022-09-15T08:56:33.269Z,96858.81
2022-09-15T08:59:41.221Z,96871.81
2022-09-15T09:03:29.618Z,96872.41
2022-09-15T09:06:56.774Z,96865.44
2022-09-15T09:10:19.604Z,96852.75
2022-09-15T09:13:46.636Z,96856.25
2022-09-15T09:17:32.603Z,96856.94
2022-09-15T09:21:00.346Z,96861.31
2022-09-15T09:24:17.801Z,96863.78
2022-09-15T09:27:31.932Z,96867.56
2022-09-15T09:30:40.435Z,96867.84
2022-09-15T09:33:54.644Z,96866.81
2022-09-15T09:37:13.504Z,96867.13
2022-09-15T09:40:20.299Z,96865.31
2022-09-15T09:43:32.516Z,96865.28
2022-09-15T09:46:38.101Z,96873.34
2022-09-15T09:49:50.592Z,96866.03
2022-09-15T09:52:56.076Z,96862.78
2022-09-15T09:56:27.983Z,96864.16
2022-09-15T09:59:45.448Z,96860.94
2022-09-15T10:02:51.569Z,96853.38
2022-09-15T10:06:09.708Z,96850.13
2022-09-15T10:09:20.934Z,96850.66
2022-09-15T10:12:33.902Z,96841.72
2022-09-15T10:15:43.615Z,96846.59
2022-09-15T10:18:54.410Z,96853.31
2022-09-15T10:22:04.021Z,96842.19
2022-09-15T10:25:58.164Z,96846.75
2022-09-15T10:29:19.198Z,96840.81
2022-09-15T10:32:34.596Z,96839.78
2022-09-15T10:35:46.118Z,96841.38
2022-09-15T10:39:03.039Z,96842.63
2022-09-15T10:42:26.070Z,96836.44
2022-09-15T10:45:41.055Z,96842.16
2022-09-15T10:49:10.178Z,96844.34
2022-09-15T10:52:39.144Z,96838.16
2022-09-15T10:56:00.834Z,96831.78
2022-09-15T10:59:32.286Z,96831.56
2022-09-15T11:03:28.442Z,96827.50
2022-09-15T11:06:53.294Z,96818.94
2022-09-15T11:10:17.240Z,96821.47
2022-09-15T11:13:36.392Z,96825.56
2022-09-15T11:17:13.679Z,96815.06
2022-09-15T11:21:05.765Z,96810.50
2022-09-15T11:24:39.667Z,96811.84
2022-09-15T11:27:54.545Z,96810.19
2022-09-15T11:31:10.126Z,96811.28
2022-09-15T11:34:26.628Z,96809.69
2022-09-15T11:37:46.299Z,96798.88
2022-09-15T11:41:07.824Z,96795.66
2022-09-15T11:44:32.473Z,96784.00
2022-09-15T11:47:48.028Z,96774.53
2022-09-15T11:51:06.162Z,96784.75
2022-09-15T11:54:31.626Z,96786.38
2022-09-15T11:57:54.006Z,96779.50
2022-09-15T12:01:10.811Z,96782.44
2022-09-15T12:04:26.522Z,96774.34
2022-09-15T12:07:42.044Z,96780.28
2022-09-15T12:10:55.266Z,96773.28
2022-09-15T12:14:07.118Z,96773.00
2022-09-15T12:17:28.150Z,96774.88
2022-09-15T12:20:46.329Z,96766.72
2022-09-15T12:24:05.206Z,96767.50
2022-09-15T12:27:20.892Z,96766.66
2022-09-15T12:30:45.178Z,96761.25
2022-09-15T12:33:58.937Z,96769.91
2022-09-15T12:37:16.093Z,96775.78
2022-09-15T12:40:38.701Z,96775.16
2022-09-15T12:43:58.491Z,96783.28
2022-09-15T12:47:34.804Z,96785.00
2022-09-15T12:50:46.706Z,96791.66
2022-09-15T12:53:59.918Z,96787.41
2022-09-15T12:57:10.429Z,96783.81
2022-09-15T13:00:34.985Z,96781.09
2022-09-15T13:04:46.519Z,96771.44
2022-09-15T13:08:03.680Z,96771.31
2022-09-15T13:11:15.987Z,96766.91
2022-09-15T13:14:36.638Z,96767.00
2022-09-15T13:17:49.459Z,96756.53
2022-09-15T13:21:10.389Z,96748.75
2022-09-15T13:24:31.837Z,96755.50
2022-09-15T13:27:43.968Z,96751.59
2022-09-15T13:31:23.563Z,96748.38
2022-09-15T13:35:17.243Z,96758.31
2022-09-15T13:39:09.793Z,96761.31
2022-09-15T13:42:36.217Z,96765.56
2022-09-15T13:46:17.315Z,96758.16
2022-09-15T13:49:50.840Z,96757.91
2022-09-15T13:53:29.619Z,96758.97
2022-09-15T13:56:41.572Z,96760.13
2022-09-15T13:59:49.901Z,96756.97
2022-09-15T14:03:01.073Z,96755.22
2022-09-15T14:06:17.364Z,96746.44
2022-09-15T14:09:31.226Z,96757.91
2022-09-15T14:12:40.036Z,96746.38
2022-09-15T14:16:02.871Z,96734.72
2022-09-15T14:19:34.005Z,96736.66
2022-09-15T14:22:44.017Z,96735.38
2022-09-15T14:25:49.782Z,96732.44
2022-09-15T14:29:00.324Z,96721.94
2022-09-15T14:32:10.019Z,96723.00
2022-09-15T14:35:23.204Z,96732.75
2022-09-15T14:38:29.548Z,96722.88
2022-09-15T14:41:36.038Z,96708.47
2022-09-15T14:48:20.539Z,96711.81
2022-09-15T14:51:33.340Z,96698.06
2022-09-15T14:54:42.021Z,96693.75
2022-09-15T14:57:59.128Z,96678.38
2022-09-15T15:01:16.375Z,96695.41
2022-09-15T15:04:37.664Z,96693.03
2022-09-15T15:07:46.544Z,96693.28
2022-09-15T15:10:52.463Z,96698.50
2022-09-15T15:14:00.174Z,96700.50
2022-09-15T15:17:14.989Z,96700.81
2022-09-15T15:20:28.615Z,96716.13
2022-09-15T15:23:36.343Z,96719.94
2022-09-15T15:26:45.256Z,96727.09
2022-09-15T15:29:51.969Z,96732.03
2022-09-15T15:32:58.364Z,96735.47
2022-09-15T15:36:12.029Z,96750.94
2022-09-15T15:39:27.733Z,96746.78
2022-09-15T15:42:33.457Z,96756.19
2022-09-15T15:45:51.867Z,96754.25
2022-09-15T15:48:57.398Z,96771.34
2022-09-15T15:52:12.522Z,96770.28
2022-09-15T15:55:22.424Z,96771.16
2022-09-15T15:58:28.074Z,96767.84
2022-09-15T16:01:33.939Z,96771.84
2022-09-15T16:04:39.492Z,96761.25
2022-09-15T16:07:53.300Z,96778.63
2022-09-15T16:11:00.944Z,96769.56
2022-09-15T16:14:06.792Z,96777.88
2022-09-15T16:17:12.411Z,96770.06
2022-09-15T16:20:19.912Z,96786.50
2022-09-15T16:23:28.038Z,96790.09
2022-09-15T16:26:35.731Z,96786.59
2022-09-15T16:29:44.183Z,96788.63
2022-09-15T16:32:49.776Z,96786.75
2022-09-15T16:36:07.066Z,96795.63
2022-09-15T16:39:15.321Z,96797.63
2022-09-15T16:42:21.022Z,96802.34
2022-09-15T16:45:39.817Z,96815.28
2022-09-15T16:48:48.982Z,96813.78
2022-09-15T16:51:54.639Z,96824.03
2022-09-15T16:55:02.912Z,96822.88
2022-09-15T16:58:09.948Z,96812.47
2022-09-15T17:01:21.973Z,96805.59
2022-09-15T17:04:32.235Z,96800.84
2022-09-15T17:07:37.815Z,96808.34
2022-09-15T17:10:52.790Z,96813.88
2022-09-15T17:13:58.430Z,96805.06
2022-09-15T17:17:03.977Z,96805.06
2022-09-15T17:20:10.597Z,96812.81
2022-09-15T17:23:27.806Z,96814.47
2022-09-15T17:26:36.167Z,96808.25
2022-09-15T17:29:41.685Z,96811.69
2022-09-15T17:32:47.669Z,96807.31
2022-09-15T17:35:53.795Z,96812.19
2022-09-15T17:38:59.589Z,96809.44
2022-09-15T17:42:09.180Z,96802.56
2022-09-15T17:45:23.718Z,96810.03
2022-09-15T17:48:29.373Z,96810.75
2022-09-15T17:51:35.489Z,96813.78
2022-09-15T17:54:41.304Z,96814.00
2022-09-15T17:57:50.651Z,96825.22
2022-09-15T18:00:57.502Z,96815.72
2022-09-15T18:04:03.184Z,96808.66
2022-09-15T18:07:14.828Z,96812.97
2022-09-15T18:10:21.829Z,96822.03
2022-09-15T18:13:34.442Z,96833.84
2022-09-15T18:16:42.811Z,96833.38
2022-09-15T18:19:50.834Z,96829.91
2022-09-15T18:22:58.901Z,96828.59
2022-09-15T18:26:05.375Z,96821.72
2022-09-15T18:29:13.561Z,96813.97
2022-09-15T18:32:21.722Z,96816.56
2022-09-15T18:35:28.673Z,96828.09
2022-09-15T18:38:34.434Z,96824.34
2022-09-15T18:41:40.366Z,96830.56
2022-09-15T18:44:48.662Z,96827.03
2022-09-15T18:47:59.162Z,96829.47
2022-09-15T18:51:05.312Z,96827.28
2022-09-15T18:54:13.499Z,96830.88
2022-09-15T18:57:19.413Z,96839.00
2022-09-15T19:00:29.189Z,96836.06
2022-09-15T19:03:37.983Z,96844.31
2022-09-15T19:06:43.855Z,96857.63
2022-09-15T19:09:56.239Z,96856.47
2022-09-15T19:13:02.397Z,96861.34
2022-09-15T19:16:13.552Z,96852.72
2022-09-15T19:19:19.783Z,96857.97
2022-09-15T19:22:25.471Z,96853.56
2022-09-15T19:25:31.051Z,96859.72
2022-09-15T19:28:36.776Z,96857.63
2022-09-15T19:31:45.291Z,96861.72
2022-09-15T19:34:51.873Z,96862.44
2022-09-15T19:37:57.833Z,96857.44
2022-09-15T19:41:08.636Z,96865.56
2022-09-15T19:44:14.256Z,96868.09
2022-09-15T19:47:24.006Z,96863.22
2022-09-15T19:50:29.699Z,96859.25
2022-09-15T19:53:35.303Z,96859.72
2022-09-15T19:56:41.461Z,96863.81
2022-09-15T19:59:47.618Z,96863.69
2022-09-15T20:02:56.994Z,96873.72
2022-09-15T20:06:03.738Z,96876.41
2022-09-15T20:09:19.285Z,96877.13
2022-09-15T20:12:25.897Z,96871.16
2022-09-15T20:15:32.226Z,96872.34
2022-09-15T20:18:43.405Z,96875.28
2022-09-15T20:21:51.652Z,96881.88
2022-09-15T20:25:01.382Z,96870.34
2022-09-15T20:28:08.477Z,96867.91
2022-09-15T20:31:18.521Z,96857.66
2022-09-15T20:34:28.044Z,96863.47
2022-09-15T20:37:37.416Z,96863.94
2022-09-15T20:40:44.577Z,96866.53
2022-09-15T20:43:51.330Z,96871.91
2022-09-15T20:46:57.833Z,96883.31
2022-09-15T20:50:07.104Z,96882.97
2022-09-15T20:53:14.118Z,96896.72
2022-09-15T20:56:25.187Z,96887.88
2022-09-15T20:59:32.119Z,96897.53
2022-09-15T21:02:38.865Z,96893.69
2022-09-15T21:05:48.639Z,96897.28
2022-09-15T21:08:58.070Z,96905.22
2022-09-15T21:12:04.427Z,96908.13
2022-09-15T21:15:16.009Z,96918.34
2022-09-15T21:18:22.450Z,96915.56
2022-09-15T21:21:34.418Z,96920.91
2022-09-15T21:24:40.741Z,96920.78
2022-09-15T21:27:47.088Z,96925.47
2022-09-15T21:30:53.918Z,96925.91
2022-09-15T21:34:02.663Z,96929.75
2022-09-15T21:37:11.585Z,96940.47
2022-09-15T21:40:18.651Z,96940.06
2022-09-15T21:43:25.203Z,96938.75
2022-09-15T21:46:34.473Z,96951.09
2022-09-15T21:49:40.679Z,96953.66
2022-09-15T21:52:49.567Z,96960.88
2022-09-15T21:55:56.911Z,96955.28
2022-09-15T21:59:05.895Z,96957.34
2022-09-15T22:02:12.308Z,96965.97
2022-09-15T22:05:19.003Z,96955.16
2022-09-15T22:08:28.023Z,96960.44
2022-09-15T22:11:35.529Z,96963.66
2022-09-15T22:14:41.823Z,96964.72
2022-09-15T22:17:48.055Z,96965.31
2022-09-15T22:20:54.535Z,96972.28
2022-09-15T22:24:04.681Z,96976.19
2022-09-15T22:27:11.279Z,96980.94
2022-09-15T22:30:17.531Z,96976.66
2022-09-15T22:33:23.956Z,96973.53
2022-09-15T22:36:34.169Z,96976.13
2022-09-15T22:39:58.484Z,96985.19
2022-09-15T22:43:05.549Z,96993.81
2022-09-15T22:46:13.401Z,96995.56
2022-09-15T22:49:20.111Z,96995.00
2022-09-15T22:52:26.358Z,96993.00
2022-09-15T22:55:36.763Z,96998.56
2022-09-15T22:58:46.981Z,96991.38
2022-09-15T23:01:53.420Z,96998.47
2022-09-15T23:04:59.460Z,97001.38
2022-09-15T23:08:06.859Z,97002.69
2022-09-15T23:11:17.356Z,97005.50
2022-09-15T23:14:24.067Z,97005.13
2022-09-15T23:17:29.594Z,96997.09
2022-09-15T23:20:36.308Z,97001.03
2022-09-15T23:23:46.780Z,97001.59
2022-09-15T23:26:55.093Z,97006.16
2022-09-15T23:30:00.823Z,97005.56
2022-09-15T23:33:06.618Z,97003.34
2022-09-15T23:36:16.238Z,97015.31
2022-09-15T23:39:21.865Z,97024.16
2022-09-15T23:42:32.414Z,97028.44
2022-09-15T23:45:38.015Z,97029.03
2022-09-15T23:48:44.125Z,97018.19
2022-09-15T23:51:49.770Z,97021.81
2022-09-15T23:54:55.346Z,97026.81
2022-09-15T23:58:03.511Z,97022.63
